sensor_id;sensor_type;location;lat;lon;timestamp;pressure;altitude;pressure_sealevel;temperature;humidity
30875;BME280;17581;43.222;27.924;2023-02-20T00:01:58;100501.25;;;15.56;52.66
30875;BME280;17581;43.222;27.924;2023-02-20T00:04:24;100492.59;;;15.52;52.14
30875;BME280;17581;43.222;27.924;2023-02-20T00:06:50;100497.34;;;15.50;51.74
30875;BME280;17581;43.222;27.924;2023-02-20T00:09:15;100503.91;;;15.48;51.57
30875;BME280;17581;43.222;27.924;2023-02-20T00:11:40;100479.44;;;15.40;51.31
30875;BME280;17581;43.222;27.924;2023-02-20T00:14:06;100495.06;;;15.46;51.31
30875;BME280;17581;43.222;27.924;2023-02-20T00:16:31;100490.59;;;15.37;51.46
30875;BME280;17581;43.222;27.924;2023-02-20T00:18:57;100487.56;;;15.40;51.26
30875;BME280;17581;43.222;27.924;2023-02-20T00:21:22;100499.09;;;15.42;51.60
30875;BME280;17581;43.222;27.924;2023-02-20T00:23:48;100485.06;;;15.46;50.92
30875;BME280;17581;43.222;27.924;2023-02-20T00:26:14;100489.34;;;15.49;51.02
30875;BME280;17581;43.222;27.924;2023-02-20T00:28:41;100478.94;;;15.44;50.59
30875;BME280;17581;43.222;27.924;2023-02-20T00:31:07;100485.38;;;15.43;50.83
30875;BME280;17581;43.222;27.924;2023-02-20T00:33:36;100478.69;;;15.30;50.65
30875;BME280;17581;43.222;27.924;2023-02-20T00:36:02;100478.69;;;15.30;50.71
30875;BME280;17581;43.222;27.924;2023-02-20T00:38:28;100482.72;;;15.25;51.03
30875;BME280;17581;43.222;27.924;2023-02-20T00:40:53;100483.06;;;15.22;50.90
30875;BME280;17581;43.222;27.924;2023-02-20T00:43:18;100477.94;;;15.19;50.72
30875;BME280;17581;43.222;27.924;2023-02-20T00:45:44;100469.91;;;15.10;51.19
30875;BME280;17581;43.222;27.924;2023-02-20T00:48:09;100473.78;;;15.07;51.01
30875;BME280;17581;43.222;27.924;2023-02-20T00:50:35;100485.44;;;15.08;50.94
30875;BME280;17581;43.222;27.924;2023-02-20T00:53:00;100490.50;;;15.03;51.02
30875;BME280;17581;43.222;27.924;2023-02-20T00:55:26;100485.34;;;14.92;51.08
30875;BME280;17581;43.222;27.924;2023-02-20T00:57:52;100498.78;;;15.01;50.93
30875;BME280;17581;43.222;27.924;2023-02-20T01:00:24;100509.47;;;15.03;51.16
30875;BME280;17581;43.222;27.924;2023-02-20T01:02:49;100508.47;;;15.04;51.24
30875;BME280;17581;43.222;27.924;2023-02-20T01:05:15;100509.22;;;14.96;51.30
30875;BME280;17581;43.222;27.924;2023-02-20T01:07:40;100525.78;;;14.93;51.34
30875;BME280;17581;43.222;27.924;2023-02-20T01:10:07;100531.13;;;14.85;51.44
30875;BME280;17581;43.222;27.924;2023-02-20T01:12:33;100532.44;;;14.81;51.38
30875;BME280;17581;43.222;27.924;2023-02-20T01:14:58;100527.50;;;14.77;51.50
30875;BME280;17581;43.222;27.924;2023-02-20T01:17:24;100532.44;;;14.63;51.75
30875;BME280;17581;43.222;27.924;2023-02-20T01:19:49;100528.50;;;14.58;51.71
30875;BME280;17581;43.222;27.924;2023-02-20T01:22:14;100524.75;;;14.59;51.65
30875;BME280;17581;43.222;27.924;2023-02-20T01:24:40;100524.63;;;14.60;51.64
30875;BME280;17581;43.222;27.924;2023-02-20T01:27:08;100535.88;;;14.56;52.00
30875;BME280;17581;43.222;27.924;2023-02-20T01:29:33;100538.91;;;14.53;52.07
30875;BME280;17581;43.222;27.924;2023-02-20T01:31:58;100539.19;;;14.50;52.00
30875;BME280;17581;43.222;27.924;2023-02-20T01:34:24;100533.41;;;14.45;51.99
30875;BME280;17581;43.222;27.924;2023-02-20T01:36:51;100527.75;;;14.29;52.13
30875;BME280;17581;43.222;27.924;2023-02-20T01:39:19;100532.88;;;14.32;52.48
30875;BME280;17581;43.222;27.924;2023-02-20T01:41:47;100528.78;;;14.28;52.39
30875;BME280;17581;43.222;27.924;2023-02-20T01:44:19;100531.63;;;14.26;52.52
30875;BME280;17581;43.222;27.924;2023-02-20T01:46:53;100528.06;;;14.26;52.59
30875;BME280;17581;43.222;27.924;2023-02-20T01:49:33;100543.00;;;14.30;52.45
30875;BME280;17581;43.222;27.924;2023-02-20T01:52:17;100531.69;;;14.16;52.62
30875;BME280;17581;43.222;27.924;2023-02-20T01:54:50;100521.88;;;14.15;52.79
30875;BME280;17581;43.222;27.924;2023-02-20T01:57:21;100549.56;;;14.27;52.62
30875;BME280;17581;43.222;27.924;2023-02-20T01:59:49;100544.22;;;14.17;52.75
30875;BME280;17581;43.222;27.924;2023-02-20T02:02:16;100534.84;;;14.12;52.53
30875;BME280;17581;43.222;27.924;2023-02-20T02:04:43;100536.59;;;14.03;52.65
30875;BME280;17581;43.222;27.924;2023-02-20T02:07:09;100543.72;;;13.95;53.16
30875;BME280;17581;43.222;27.924;2023-02-20T02:09:51;100537.31;;;13.96;53.16
30875;BME280;17581;43.222;27.924;2023-02-20T02:12:19;100547.03;;;13.89;53.54
30875;BME280;17581;43.222;27.924;2023-02-20T02:14:45;100555.28;;;13.87;53.42
30875;BME280;17581;43.222;27.924;2023-02-20T02:22:16;100547.75;;;13.91;53.51
30875;BME280;17581;43.222;27.924;2023-02-20T02:33:12;100547.22;;;13.78;53.85
30875;BME280;17581;43.222;27.924;2023-02-20T02:36:10;100528.69;;;13.83;53.57
30875;BME280;17581;43.222;27.924;2023-02-20T02:38:45;100528.13;;;13.79;53.58
30875;BME280;17581;43.222;27.924;2023-02-20T02:41:29;100526.75;;;13.75;53.68
30875;BME280;17581;43.222;27.924;2023-02-20T02:44:03;100527.63;;;13.66;53.87
30875;BME280;17581;43.222;27.924;2023-02-20T02:46:40;100529.91;;;13.61;53.99
30875;BME280;17581;43.222;27.924;2023-02-20T02:49:19;100534.19;;;13.54;54.14
30875;BME280;17581;43.222;27.924;2023-02-20T02:51:52;100557.50;;;13.55;53.97
30875;BME280;17581;43.222;27.924;2023-02-20T02:54:20;100555.69;;;13.46;54.19
30875;BME280;17581;43.222;27.924;2023-02-20T02:56:51;100558.38;;;13.46;54.35
30875;BME280;17581;43.222;27.924;2023-02-20T02:59:28;100554.97;;;13.44;54.65
30875;BME280;17581;43.222;27.924;2023-02-20T03:01:59;100565.22;;;13.50;54.47
30875;BME280;17581;43.222;27.924;2023-02-20T03:04:27;100566.06;;;13.41;54.46
30875;BME280;17581;43.222;27.924;2023-02-20T03:06:58;100573.88;;;13.44;54.89
30875;BME280;17581;43.222;27.924;2023-02-20T03:09:51;100585.97;;;13.40;55.12
30875;BME280;17581;43.222;27.924;2023-02-20T03:12:19;100583.72;;;13.35;54.78
30875;BME280;17581;43.222;27.924;2023-02-20T03:14:58;100574.34;;;13.20;55.11
30875;BME280;17581;43.222;27.924;2023-02-20T03:18:28;100594.22;;;13.29;55.11
30875;BME280;17581;43.222;27.924;2023-02-20T03:21:02;100617.41;;;13.22;55.06
30875;BME280;17581;43.222;27.924;2023-02-20T03:23:34;100643.72;;;13.29;55.29
30875;BME280;17581;43.222;27.924;2023-02-20T03:26:06;100642.56;;;13.13;55.03
30875;BME280;17581;43.222;27.924;2023-02-20T03:28:39;100660.19;;;13.26;55.37
30875;BME280;17581;43.222;27.924;2023-02-20T03:33:42;100677.56;;;13.24;55.40
30875;BME280;17581;43.222;27.924;2023-02-20T03:36:37;100688.06;;;13.27;55.36
30875;BME280;17581;43.222;27.924;2023-02-20T03:39:27;100684.50;;;13.26;55.74
30875;BME280;17581;43.222;27.924;2023-02-20T03:42:14;100700.84;;;13.25;55.77
30875;BME280;17581;43.222;27.924;2023-02-20T03:45:01;100690.19;;;13.14;56.46
30875;BME280;17581;43.222;27.924;2023-02-20T03:47:30;100729.16;;;12.90;57.63
30875;BME280;17581;43.222;27.924;2023-02-20T03:49:57;100750.41;;;12.74;58.07
30875;BME280;17581;43.222;27.924;2023-02-20T03:52:24;100771.63;;;12.58;57.98
30875;BME280;17581;43.222;27.924;2023-02-20T03:54:50;100763.88;;;12.23;58.59
30875;BME280;17581;43.222;27.924;2023-02-20T03:57:24;100780.28;;;12.11;59.08
30875;BME280;17581;43.222;27.924;2023-02-20T04:00:17;100797.97;;;12.04;59.27
30875;BME280;17581;43.222;27.924;2023-02-20T04:02:46;100804.41;;;11.91;58.87
30875;BME280;17581;43.222;27.924;2023-02-20T04:05:18;100813.97;;;11.84;58.52
30875;BME280;17581;43.222;27.924;2023-02-20T04:07:50;100818.75;;;11.81;58.15
30875;BME280;17581;43.222;27.924;2023-02-20T04:10:38;100802.97;;;11.65;57.94
30875;BME280;17581;43.222;27.924;2023-02-20T04:13:06;100803.47;;;11.59;57.14
30875;BME280;17581;43.222;27.924;2023-02-20T04:15:32;100800.88;;;11.37;57.35
30875;BME280;17581;43.222;27.924;2023-02-20T04:18:08;100798.63;;;11.42;56.16
30875;BME280;17581;43.222;27.924;2023-02-20T04:20:34;100799.66;;;11.19;56.68
30875;BME280;17581;43.222;27.924;2023-02-20T04:23:05;100801.25;;;11.10;56.48
30875;BME280;17581;43.222;27.924;2023-02-20T04:25:41;100802.97;;;11.11;56.43
30875;BME280;17581;43.222;27.924;2023-02-20T04:28:09;100807.38;;;11.01;56.94
30875;BME280;17581;43.222;27.924;2023-02-20T04:30:35;100823.16;;;11.06;56.56
30875;BME280;17581;43.222;27.924;2023-02-20T04:33:00;100837.84;;;11.13;56.67
30875;BME280;17581;43.222;27.924;2023-02-20T04:35:26;100845.19;;;11.11;55.33
30875;BME280;17581;43.222;27.924;2023-02-20T04:37:51;100837.38;;;10.97;55.40
30875;BME280;17581;43.222;27.924;2023-02-20T04:40:19;100852.66;;;11.18;55.69
30875;BME280;17581;43.222;27.924;2023-02-20T04:42:46;100865.38;;;11.16;54.65
30875;BME280;17581;43.222;27.924;2023-02-20T04:45:11;100851.06;;;11.16;54.73
30875;BME280;17581;43.222;27.924;2023-02-20T04:47:36;100860.00;;;11.05;55.21
30875;BME280;17581;43.222;27.924;2023-02-20T04:50:03;100847.41;;;11.06;54.77
30875;BME280;17581;43.222;27.924;2023-02-20T04:52:28;100858.75;;;10.98;54.99
30875;BME280;17581;43.222;27.924;2023-02-20T04:54:54;100857.69;;;11.01;55.23
30875;BME280;17581;43.222;27.924;2023-02-20T04:57:20;100865.03;;;11.10;55.15
30875;BME280;17581;43.222;27.924;2023-02-20T04:59:46;100876.28;;;11.04;54.83
30875;BME280;17581;43.222;27.924;2023-02-20T05:02:12;100867.91;;;10.73;55.59
30875;BME280;17581;43.222;27.924;2023-02-20T05:04:37;100871.59;;;10.83;55.53
30875;BME280;17581;43.222;27.924;2023-02-20T05:07:03;100866.44;;;10.69;56.09
30875;BME280;17581;43.222;27.924;2023-02-20T05:09:29;100884.03;;;10.73;56.04
30875;BME280;17581;43.222;27.924;2023-02-20T05:11:55;100883.78;;;10.65;56.04
30875;BME280;17581;43.222;27.924;2023-02-20T05:14:20;100886.47;;;10.54;56.81
30875;BME280;17581;43.222;27.924;2023-02-20T05:16:46;100889.41;;;10.51;56.67
30875;BME280;17581;43.222;27.924;2023-02-20T05:19:13;100900.63;;;10.45;56.61
30875;BME280;17581;43.222;27.924;2023-02-20T05:21:43;100895.63;;;10.52;56.69
30875;BME280;17581;43.222;27.924;2023-02-20T05:24:28;100922.16;;;10.56;56.54
30875;BME280;17581;43.222;27.924;2023-02-20T05:26:55;100931.66;;;10.49;56.76
30875;BME280;17581;43.222;27.924;2023-02-20T05:29:21;100936.28;;;10.36;57.51
30875;BME280;17581;43.222;27.924;2023-02-20T05:31:46;100928.22;;;10.36;57.42
30875;BME280;17581;43.222;27.924;2023-02-20T05:34:12;100938.34;;;10.32;57.75
30875;BME280;17581;43.222;27.924;2023-02-20T05:36:37;100935.41;;;10.35;57.54
30875;BME280;17581;43.222;27.924;2023-02-20T05:39:03;100946.09;;;10.48;57.19
30875;BME280;17581;43.222;27.924;2023-02-20T05:41:30;100937.16;;;10.48;56.96
30875;BME280;17581;43.222;27.924;2023-02-20T05:43:55;100953.63;;;10.43;56.81
30875;BME280;17581;43.222;27.924;2023-02-20T05:46:26;100959.31;;;10.27;57.46
30875;BME280;17581;43.222;27.924;2023-02-20T05:48:52;100967.81;;;10.21;57.63
30875;BME280;17581;43.222;27.924;2023-02-20T05:51:26;100968.47;;;10.25;57.51
30875;BME280;17581;43.222;27.924;2023-02-20T05:53:53;100966.53;;;10.27;57.41
30875;BME280;17581;43.222;27.924;2023-02-20T05:56:19;100972.50;;;10.30;57.48
30875;BME280;17581;43.222;27.924;2023-02-20T05:58:45;100993.66;;;10.24;57.52
30875;BME280;17581;43.222;27.924;2023-02-20T06:01:19;101006.19;;;10.36;56.71
30875;BME280;17581;43.222;27.924;2023-02-20T06:03:45;101018.94;;;10.45;57.07
30875;BME280;17581;43.222;27.924;2023-02-20T06:06:11;101032.03;;;10.50;57.12
30875;BME280;17581;43.222;27.924;2023-02-20T06:08:36;101043.34;;;10.66;56.32
30875;BME280;17581;43.222;27.924;2023-02-20T06:11:03;101054.56;;;10.83;55.76
30875;BME280;17581;43.222;27.924;2023-02-20T06:13:28;101057.41;;;10.93;54.94
30875;BME280;17581;43.222;27.924;2023-02-20T06:15:53;101065.72;;;10.90;54.99
30875;BME280;17581;43.222;27.924;2023-02-20T06:18:19;101054.06;;;10.78;54.68
30875;BME280;17581;43.222;27.924;2023-02-20T06:20:44;101065.38;;;10.95;54.23
30875;BME280;17581;43.222;27.924;2023-02-20T06:23:10;101074.88;;;10.87;54.07
30875;BME280;17581;43.222;27.924;2023-02-20T06:25:35;101084.47;;;10.91;53.77
30875;BME280;17581;43.222;27.924;2023-02-20T06:28:00;101093.25;;;10.93;53.93
30875;BME280;17581;43.222;27.924;2023-02-20T06:30:26;101097.44;;;10.98;53.67
30875;BME280;17581;43.222;27.924;2023-02-20T06:32:52;101074.41;;;10.93;53.22
30875;BME280;17581;43.222;27.924;2023-02-20T06:35:17;101079.06;;;10.91;53.78
30875;BME280;17581;43.222;27.924;2023-02-20T06:37:43;101089.06;;;10.89;53.82
30875;BME280;17581;43.222;27.924;2023-02-20T06:40:09;101081.59;;;10.82;53.77
30875;BME280;17581;43.222;27.924;2023-02-20T06:42:34;101084.38;;;10.80;53.74
30875;BME280;17581;43.222;27.924;2023-02-20T06:45:00;101096.66;;;10.84;53.87
30875;BME280;17581;43.222;27.924;2023-02-20T06:47:25;101100.16;;;10.61;54.44
30875;BME280;17581;43.222;27.924;2023-02-20T06:49:51;101097.88;;;10.68;54.27
30875;BME280;17581;43.222;27.924;2023-02-20T06:52:16;101109.28;;;10.48;54.70
30875;BME280;17581;43.222;27.924;2023-02-20T06:54:42;101118.56;;;10.31;55.20
30875;BME280;17581;43.222;27.924;2023-02-20T06:57:08;101112.56;;;10.02;56.22
30875;BME280;17581;43.222;27.924;2023-02-20T06:59:33;101106.34;;;10.02;56.00
30875;BME280;17581;43.222;27.924;2023-02-20T07:02:08;101130.44;;;9.91;56.39
30875;BME280;17581;43.222;27.924;2023-02-20T07:04:34;101116.44;;;9.60;57.16
30875;BME280;17581;43.222;27.924;2023-02-20T07:06:59;101129.66;;;9.63;57.40
30875;BME280;17581;43.222;27.924;2023-02-20T07:09:26;101128.25;;;9.58;57.70
30875;BME280;17581;43.222;27.924;2023-02-20T07:11:52;101132.00;;;9.43;58.45
30875;BME280;17581;43.222;27.924;2023-02-20T07:14:18;101129.50;;;9.27;58.72
30875;BME280;17581;43.222;27.924;2023-02-20T07:16:44;101148.16;;;9.16;59.23
30875;BME280;17581;43.222;27.924;2023-02-20T07:19:10;101145.34;;;9.05;59.85
30875;BME280;17581;43.222;27.924;2023-02-20T07:21:35;101151.25;;;9.10;59.75
30875;BME280;17581;43.222;27.924;2023-02-20T07:24:01;101148.78;;;9.07;60.23
30875;BME280;17581;43.222;27.924;2023-02-20T07:26:28;101159.47;;;8.94;60.21
30875;BME280;17581;43.222;27.924;2023-02-20T07:28:55;101160.31;;;8.95;60.82
30875;BME280;17581;43.222;27.924;2023-02-20T07:31:23;101159.16;;;8.99;60.94
30875;BME280;17581;43.222;27.924;2023-02-20T07:33:48;101150.09;;;8.87;60.75
30875;BME280;17581;43.222;27.924;2023-02-20T07:36:14;101159.31;;;8.83;60.70
30875;BME280;17581;43.222;27.924;2023-02-20T07:38:40;101170.13;;;8.82;61.04
30875;BME280;17581;43.222;27.924;2023-02-20T07:41:06;101173.59;;;8.84;61.21
30875;BME280;17581;43.222;27.924;2023-02-20T07:43:31;101179.84;;;8.97;61.68
30875;BME280;17581;43.222;27.924;2023-02-20T07:45:57;101191.69;;;9.07;61.31
30875;BME280;17581;43.222;27.924;2023-02-20T07:48:22;101181.44;;;9.13;60.57
30875;BME280;17581;43.222;27.924;2023-02-20T07:50:48;101179.75;;;9.25;59.50
30875;BME280;17581;43.222;27.924;2023-02-20T07:53:15;101196.50;;;9.28;58.98
30875;BME280;17581;43.222;27.924;2023-02-20T07:55:41;101198.41;;;9.14;59.11
30875;BME280;17581;43.222;27.924;2023-02-20T07:58:07;101209.81;;;9.30;58.87
30875;BME280;17581;43.222;27.924;2023-02-20T08:00:33;101209.19;;;9.39;59.13
30875;BME280;17581;43.222;27.924;2023-02-20T08:02:58;101218.28;;;9.51;58.85
30875;BME280;17581;43.222;27.924;2023-02-20T08:05:24;101223.59;;;9.38;59.12
30875;BME280;17581;43.222;27.924;2023-02-20T08:07:50;101226.72;;;9.18;59.36
30875;BME280;17581;43.222;27.924;2023-02-20T08:10:19;101224.38;;;9.13;60.15
30875;BME280;17581;43.222;27.924;2023-02-20T08:12:45;101233.91;;;9.17;60.83
30875;BME280;17581;43.222;27.924;2023-02-20T08:15:10;101240.00;;;9.07;61.19
30875;BME280;17581;43.222;27.924;2023-02-20T08:17:37;101244.09;;;9.12;61.47
30875;BME280;17581;43.222;27.924;2023-02-20T08:20:04;101239.81;;;9.10;61.45
30875;BME280;17581;43.222;27.924;2023-02-20T08:22:31;101246.31;;;9.06;61.67
30875;BME280;17581;43.222;27.924;2023-02-20T08:24:56;101236.78;;;8.88;61.93
30875;BME280;17581;43.222;27.924;2023-02-20T08:27:21;101249.81;;;8.94;62.00
30875;BME280;17581;43.222;27.924;2023-02-20T08:29:47;101267.81;;;8.92;62.38
30875;BME280;17581;43.222;27.924;2023-02-20T08:32:12;101264.78;;;8.84;62.79
30875;BME280;17581;43.222;27.924;2023-02-20T08:34:38;101262.84;;;8.71;63.65
30875;BME280;17581;43.222;27.924;2023-02-20T08:37:03;101265.88;;;8.53;63.73
30875;BME280;17581;43.222;27.924;2023-02-20T08:39:29;101260.97;;;8.31;65.71
30875;BME280;17581;43.222;27.924;2023-02-20T08:41:54;101276.03;;;8.18;65.92
30875;BME280;17581;43.222;27.924;2023-02-20T08:44:20;101282.03;;;8.07;66.74
30875;BME280;17581;43.222;27.924;2023-02-20T08:46:49;101290.75;;;8.11;66.89
30875;BME280;17581;43.222;27.924;2023-02-20T08:49:16;101298.03;;;8.09;66.93
30875;BME280;17581;43.222;27.924;2023-02-20T08:51:52;101302.31;;;7.97;66.97
30875;BME280;17581;43.222;27.924;2023-02-20T08:54:19;101308.13;;;7.90;66.62
30875;BME280;17581;43.222;27.924;2023-02-20T08:56:44;101311.78;;;7.89;66.67
30875;BME280;17581;43.222;27.924;2023-02-20T08:59:10;101315.03;;;7.94;66.67
30875;BME280;17581;43.222;27.924;2023-02-20T09:01:35;101312.75;;;8.02;66.92
30875;BME280;17581;43.222;27.924;2023-02-20T09:04:01;101318.22;;;8.00;66.84
30875;BME280;17581;43.222;27.924;2023-02-20T09:06:28;101314.47;;;8.03;66.55
30875;BME280;17581;43.222;27.924;2023-02-20T09:08:54;101310.50;;;8.10;66.00
30875;BME280;17581;43.222;27.924;2023-02-20T09:11:20;101307.63;;;8.13;66.80
30875;BME280;17581;43.222;27.924;2023-02-20T09:13:47;101303.03;;;8.15;65.40
30875;BME280;17581;43.222;27.924;2023-02-20T09:16:15;101317.00;;;8.20;65.49
30875;BME280;17581;43.222;27.924;2023-02-20T09:18:42;101316.31;;;8.16;65.81
30875;BME280;17581;43.222;27.924;2023-02-20T09:21:10;101322.84;;;8.12;66.10
30875;BME280;17581;43.222;27.924;2023-02-20T09:23:36;101325.38;;;8.00;66.46
30875;BME280;17581;43.222;27.924;2023-02-20T09:26:02;101340.88;;;7.95;66.10
30875;BME280;17581;43.222;27.924;2023-02-20T09:28:27;101355.09;;;7.95;66.26
30875;BME280;17581;43.222;27.924;2023-02-20T09:30:53;101349.09;;;7.92;66.80
30875;BME280;17581;43.222;27.924;2023-02-20T09:33:20;101335.69;;;7.92;67.01
30875;BME280;17581;43.222;27.924;2023-02-20T09:35:45;101352.53;;;7.94;66.65
30875;BME280;17581;43.222;27.924;2023-02-20T09:38:13;101359.97;;;7.89;66.39
30875;BME280;17581;43.222;27.924;2023-02-20T09:40:39;101354.25;;;7.95;66.87
30875;BME280;17581;43.222;27.924;2023-02-20T09:45:57;101355.56;;;8.17;66.92
30875;BME280;17581;43.222;27.924;2023-02-20T09:51:10;101356.44;;;8.18;64.78
30875;BME280;17581;43.222;27.924;2023-02-20T09:56:20;101363.03;;;8.56;63.69
30875;BME280;17581;43.222;27.924;2023-02-20T10:01:19;101362.47;;;8.65;62.39
30875;BME280;17581;43.222;27.924;2023-02-20T10:03:55;101377.03;;;8.61;61.47
30875;BME280;17581;43.222;27.924;2023-02-20T10:06:26;101368.19;;;8.59;60.84
30875;BME280;17581;43.222;27.924;2023-02-20T10:08:52;101369.56;;;8.66;60.23
30875;BME280;17581;43.222;27.924;2023-02-20T10:14:05;101367.47;;;8.86;60.89
30875;BME280;17581;43.222;27.924;2023-02-20T10:16:39;101356.44;;;8.90;60.29
30875;BME280;17581;43.222;27.924;2023-02-20T10:19:22;101366.41;;;9.02;60.29
30875;BME280;17581;43.222;27.924;2023-02-20T10:24:37;101370.59;;;9.20;59.62
30875;BME280;17581;43.222;27.924;2023-02-20T10:27:22;101367.03;;;9.34;59.22
30875;BME280;17581;43.222;27.924;2023-02-20T10:29:50;101367.97;;;9.47;57.62
30875;BME280;17581;43.222;27.924;2023-02-20T10:33:11;101364.09;;;9.65;57.23
30875;BME280;17581;43.222;27.924;2023-02-20T10:35:43;101357.13;;;9.75;57.70
30875;BME280;17581;43.222;27.924;2023-02-20T10:38:12;101334.34;;;9.68;56.30
30875;BME280;17581;43.222;27.924;2023-02-20T10:40:41;101341.00;;;9.75;55.52
30875;BME280;17581;43.222;27.924;2023-02-20T10:43:24;101351.94;;;9.72;54.58
30875;BME280;17581;43.222;27.924;2023-02-20T10:48:31;101332.66;;;9.80;55.67
30875;BME280;17581;43.222;27.924;2023-02-20T10:51:29;101349.34;;;9.98;54.89
30875;BME280;17581;43.222;27.924;2023-02-20T10:54:03;101360.75;;;10.01;54.05
30875;BME280;17581;43.222;27.924;2023-02-20T10:56:45;101351.63;;;10.04;54.00
30875;BME280;17581;43.222;27.924;2023-02-20T10:59:18;101357.44;;;10.10;53.84
30875;BME280;17581;43.222;27.924;2023-02-20T11:01:49;101346.97;;;10.20;53.83
30875;BME280;17581;43.222;27.924;2023-02-20T11:06:46;101354.94;;;10.34;52.68
30875;BME280;17581;43.222;27.924;2023-02-20T11:09:14;101367.88;;;10.42;52.84
30875;BME280;17581;43.222;27.924;2023-02-20T11:11:42;101373.91;;;10.45;52.29
30875;BME280;17581;43.222;27.924;2023-02-20T11:14:19;101368.94;;;10.39;51.26
30875;BME280;17581;43.222;27.924;2023-02-20T11:16:51;101364.31;;;10.41;50.62
30875;BME280;17581;43.222;27.924;2023-02-20T11:19:20;101362.78;;;10.37;50.96
30875;BME280;17581;43.222;27.924;2023-02-20T11:21:48;101345.19;;;10.46;51.25
30875;BME280;17581;43.222;27.924;2023-02-20T11:27:02;101340.22;;;10.77;50.48
30875;BME280;17581;43.222;27.924;2023-02-20T11:29:35;101343.44;;;10.82;49.63
30875;BME280;17581;43.222;27.924;2023-02-20T11:35:10;101340.34;;;10.88;48.28
30875;BME280;17581;43.222;27.924;2023-02-20T11:37:36;101328.50;;;10.78;48.36
30875;BME280;17581;43.222;27.924;2023-02-20T11:40:02;101356.06;;;10.95;47.90
30875;BME280;17581;43.222;27.924;2023-02-20T11:42:34;101340.75;;;10.95;48.28
30875;BME280;17581;43.222;27.924;2023-02-20T11:45:16;101353.16;;;10.85;47.92
30875;BME280;17581;43.222;27.924;2023-02-20T11:47:42;101359.69;;;10.93;49.02
30875;BME280;17581;43.222;27.924;2023-02-20T11:50:17;101352.81;;;10.89;49.53
30875;BME280;17581;43.222;27.924;2023-02-20T11:53:00;101352.59;;;10.92;50.01
30875;BME280;17581;43.222;27.924;2023-02-20T11:55:27;101340.66;;;10.97;50.02
30875;BME280;17581;43.222;27.924;2023-02-20T11:57:54;101352.81;;;10.89;50.29
30875;BME280;17581;43.222;27.924;2023-02-20T12:00:28;101336.56;;;10.78;50.60
30875;BME280;17581;43.222;27.924;2023-02-20T12:05:40;101364.88;;;10.71;50.40
30875;BME280;17581;43.222;27.924;2023-02-20T12:13:39;101365.50;;;10.50;49.74
30875;BME280;17581;43.222;27.924;2023-02-20T12:16:21;101364.63;;;10.49;49.84
30875;BME280;17581;43.222;27.924;2023-02-20T12:34:24;101362.19;;;10.97;48.57
30875;BME280;17581;43.222;27.924;2023-02-20T12:37:02;101364.78;;;10.85;47.76
30875;BME280;17581;43.222;27.924;2023-02-20T12:42:45;101372.06;;;10.96;47.75
30875;BME280;17581;43.222;27.924;2023-02-20T13:00:06;101387.34;;;10.96;47.39
30875;BME280;17581;43.222;27.924;2023-02-20T13:02:45;101386.41;;;10.97;47.89
30875;BME280;17581;43.222;27.924;2023-02-20T13:05:17;101387.91;;;11.01;47.10
30875;BME280;17581;43.222;27.924;2023-02-20T13:07:55;101376.94;;;10.91;46.74
30875;BME280;17581;43.222;27.924;2023-02-20T13:10:44;101393.50;;;10.98;46.96
30875;BME280;17581;43.222;27.924;2023-02-20T13:13:11;101393.38;;;10.86;47.14
30875;BME280;17581;43.222;27.924;2023-02-20T13:15:40;101400.50;;;10.87;46.63
30875;BME280;17581;43.222;27.924;2023-02-20T13:20:48;101378.13;;;10.87;46.74
30875;BME280;17581;43.222;27.924;2023-02-20T13:25:42;101371.66;;;10.89;46.26
30875;BME280;17581;43.222;27.924;2023-02-20T13:30:36;101364.66;;;10.87;45.54
30875;BME280;17581;43.222;27.924;2023-02-20T13:33:28;101367.88;;;10.79;45.91
30875;BME280;17581;43.222;27.924;2023-02-20T13:35:55;101360.88;;;10.77;45.44
30875;BME280;17581;43.222;27.924;2023-02-20T13:38:23;101366.38;;;10.88;45.99
30875;BME280;17581;43.222;27.924;2023-02-20T13:53:45;101362.16;;;11.09;45.55
30875;BME280;17581;43.222;27.924;2023-02-20T13:56:21;101339.13;;;11.05;44.57
30875;BME280;17581;43.222;27.924;2023-02-20T13:58:47;101357.94;;;11.18;44.95
30875;BME280;17581;43.222;27.924;2023-02-20T14:01:14;101345.34;;;11.18;44.73
30875;BME280;17581;43.222;27.924;2023-02-20T14:03:40;101342.63;;;11.31;44.88
30875;BME280;17581;43.222;27.924;2023-02-20T14:08:32;101332.47;;;11.34;44.43
30875;BME280;17581;43.222;27.924;2023-02-20T14:14:07;101336.09;;;11.10;45.57
30875;BME280;17581;43.222;27.924;2023-02-20T14:16:40;101338.34;;;11.16;45.33
30875;BME280;17581;43.222;27.924;2023-02-20T14:19:17;101344.06;;;11.11;46.19
30875;BME280;17581;43.222;27.924;2023-02-20T14:21:44;101338.56;;;11.13;46.03
30875;BME280;17581;43.222;27.924;2023-02-20T14:24:35;101348.56;;;11.11;46.22
30875;BME280;17581;43.222;27.924;2023-02-20T14:27:01;101341.38;;;10.99;45.81
30875;BME280;17581;43.222;27.924;2023-02-20T14:29:29;101342.66;;;11.06;45.75
30875;BME280;17581;43.222;27.924;2023-02-20T14:32:01;101346.09;;;11.08;45.41
30875;BME280;17581;43.222;27.924;2023-02-20T14:34:34;101349.97;;;11.16;45.47
30875;BME280;17581;43.222;27.924;2023-02-20T14:37:30;101341.72;;;11.07;45.60
30875;BME280;17581;43.222;27.924;2023-02-20T14:42:38;101339.69;;;10.98;44.84
30875;BME280;17581;43.222;27.924;2023-02-20T14:45:13;101323.31;;;10.88;44.72
30875;BME280;17581;43.222;27.924;2023-02-20T14:48:22;101324.94;;;10.90;44.65
30875;BME280;17581;43.222;27.924;2023-02-20T14:50:48;101331.28;;;10.77;44.56